Time;durP1;ratioP1;P1;durP2;ratioP2;P2;SDS_P1;SDS_P2;PMS_P1;PMS_P2;Temp;Humidity;BMP_temperature;BMP_pressure;BME280_temperature;BME280_humidity;BME280_pressure;Samples;Min_cycle;Max_cycle;Signal;HPM_P1;HPM_P2
2022/01/30 00:00:45;;;;;;;31.33;5.13;;;6.50;99.90;;;;;;5051207;28;20229;-76
2022/01/30 00:03:11;;;;;;;20.73;4.23;;;6.40;99.90;;;;;;5050975;28;20211;-76
2022/01/30 00:05:37;;;;;;;18.83;3.77;;;6.30;99.90;;;;;;5050911;28;20203;-78
2022/01/30 00:08:02;;;;;;;17.00;3.83;;;6.30;99.90;;;;;;5032900;28;20310;-78
2022/01/30 00:10:30;;;;;;;17.57;4.57;;;6.30;99.90;;;;;;5032653;28;20239;-77
2022/01/30 00:12:58;;;;;;;26.67;5.13;;;6.30;99.90;;;;;;5090363;23;20295;-74
2022/01/30 00:15:38;;;;;;;20.00;4.27;;;6.30;99.90;;;;;;5090319;28;20214;-74
2022/01/30 00:20:40;;;;;;;20.80;4.33;;;6.40;99.90;;;;;;5091791;28;20216;-73
2022/01/30 00:23:18;;;;;;;23.83;3.93;;;6.40;99.90;;;;;;5090146;28;20226;-74
2022/01/30 00:25:50;;;;;;;23.43;4.60;;;6.40;99.90;;;;;;5091178;28;20216;-73
2022/01/30 00:28:18;;;;;;;21.77;4.10;;;6.40;99.90;;;;;;5089855;28;20242;-74
2022/01/30 00:30:44;;;;;;;18.37;3.80;;;6.50;99.90;;;;;;5091996;28;20170;-74
2022/01/30 00:33:09;;;;;;;21.23;4.30;;;6.60;99.90;;;;;;5091368;28;20280;-74
2022/01/30 00:35:36;;;;;;;20.10;5.30;;;6.70;99.90;;;;;;5090740;28;20617;-74
2022/01/30 00:38:03;;;;;;;19.87;4.20;;;6.70;99.90;;;;;;5091017;28;20210;-74
2022/01/30 00:40:28;;;;;;;24.43;4.03;;;6.80;99.90;;;;;;5090783;28;20309;-73
2022/01/30 00:42:54;;;;;;;15.77;3.43;;;6.80;99.90;;;;;;5091546;28;20277;-73
2022/01/30 00:45:19;;;;;;;15.43;4.13;;;6.80;99.90;;;;;;5089506;28;20230;-73
2022/01/30 00:47:45;;;;;;;16.73;3.37;;;6.80;99.90;;;;;;5074666;28;20221;-74
2022/01/30 00:50:11;;;;;;;14.30;3.70;;;6.70;99.90;;;;;;5090610;28;20638;-74
2022/01/30 00:52:36;;;;;;;14.70;3.57;;;6.80;99.90;;;;;;5090856;28;20224;-74
2022/01/30 00:55:03;;;;;;;14.63;3.63;;;6.70;99.90;;;;;;5091029;28;20534;-76
2022/01/30 00:57:29;;;;;;;17.73;3.40;;;6.70;99.90;;;;;;5089993;28;20174;-74
2022/01/30 00:59:55;;;;;;;18.50;3.90;;;6.60;99.90;;;;;;5089371;28;20228;-74
2022/01/30 01:02:20;;;;;;;21.63;4.37;;;6.50;99.90;;;;;;5090645;28;20272;-74
2022/01/30 01:04:47;;;;;;;15.90;4.10;;;6.50;99.90;;;;;;5089520;28;20206;-74
2022/01/30 01:07:18;;;;;;;16.37;3.70;;;6.50;99.90;;;;;;5090805;28;20229;-74
2022/01/30 01:09:54;;;;;;;21.37;3.83;;;6.50;99.90;;;;;;5089619;28;20186;-74
2022/01/30 01:25:48;;;;;;;14.37;3.50;;;6.80;99.90;;;;;;5071092;28;20213;-74
2022/01/30 01:28:13;;;;;;;15.47;3.97;;;6.80;99.90;;;;;;5069728;28;20302;-73
2022/01/30 01:30:39;;;;;;;16.30;3.73;;;6.90;99.90;;;;;;5070457;28;20187;-74
2022/01/30 01:33:06;;;;;;;11.70;3.67;;;6.90;99.90;;;;;;5071107;28;20207;-74
2022/01/30 01:35:31;;;;;;;13.80;3.13;;;6.90;99.90;;;;;;5071095;28;20206;-74
2022/01/30 01:37:57;;;;;;;15.77;4.07;;;7.00;99.90;;;;;;5070830;28;20276;-74
2022/01/30 01:40:23;;;;;;;14.13;4.03;;;6.90;99.90;;;;;;5068429;28;20207;-74
2022/01/30 01:42:48;;;;;;;15.40;3.27;;;6.90;99.90;;;;;;5073383;28;20195;-74
2022/01/30 01:45:21;;;;;;;13.73;2.83;;;6.90;99.90;;;;;;5073898;28;20253;-74
2022/01/30 01:47:47;;;;;;;19.93;3.70;;;6.90;99.90;;;;;;5080520;28;20206;-75
2022/01/30 01:50:27;;;;;;;13.50;2.90;;;7.00;99.90;;;;;;5072732;28;20203;-74
2022/01/30 01:52:52;;;;;;;21.47;4.17;;;7.00;99.90;;;;;;5072781;28;20210;-74
2022/01/30 01:55:18;;;;;;;15.10;3.40;;;7.00;99.90;;;;;;5072560;28;20214;-74
2022/01/30 01:57:43;;;;;;;19.30;3.77;;;7.00;99.90;;;;;;5073165;28;20179;-73
2022/01/30 02:00:09;;;;;;;16.40;3.50;;;7.00;99.90;;;;;;5073812;28;20211;-74
2022/01/30 02:02:35;;;;;;;18.37;3.63;;;7.00;99.90;;;;;;5073743;28;20640;-73
2022/01/30 02:05:03;;;;;;;11.97;3.50;;;7.00;99.90;;;;;;5072312;28;20199;-73
2022/01/30 02:10:39;;;;;;;25.90;4.77;;;7.00;99.90;;;;;;5030671;28;20208;-73
2022/01/30 02:13:36;;;;;;;12.87;3.13;;;7.00;99.90;;;;;;5067357;28;20222;-73
2022/01/30 02:24:22;;;;;;;21.40;3.60;;;7.10;99.90;;;;;;5073374;28;20214;-74
2022/01/30 02:26:49;;;;;;;18.63;3.27;;;7.10;99.90;;;;;;5071825;28;20210;-74
2022/01/30 02:29:14;;;;;;;16.17;3.87;;;7.10;99.90;;;;;;5072799;28;20206;-75
2022/01/30 02:31:41;;;;;;;15.87;3.63;;;7.00;99.90;;;;;;5072880;28;20932;-74
2022/01/30 02:34:08;;;;;;;18.23;3.77;;;7.10;99.90;;;;;;5073254;28;20614;-74
2022/01/30 02:36:50;;;;;;;22.00;4.03;;;7.00;99.90;;;;;;5073359;28;20184;-74
2022/01/30 02:39:17;;;;;;;15.07;3.40;;;7.00;99.90;;;;;;5071643;28;20336;-74
2022/01/30 02:41:43;;;;;;;16.03;3.93;;;7.00;99.90;;;;;;5073223;28;20223;-73
2022/01/30 02:44:18;;;;;;;17.23;3.37;;;6.90;99.90;;;;;;5073156;28;20226;-74
2022/01/30 02:46:52;;;;;;;18.43;3.80;;;7.00;99.90;;;;;;5069145;28;20718;-73
2022/01/30 02:52:06;;;;;;;18.17;3.60;;;6.90;99.90;;;;;;5073258;28;20181;-73
2022/01/30 02:54:32;;;;;;;20.13;3.77;;;6.90;99.90;;;;;;5070746;28;20199;-73
2022/01/30 02:56:58;;;;;;;14.47;3.37;;;6.90;99.90;;;;;;5072676;28;20269;-73
2022/01/30 02:59:24;;;;;;;18.77;3.97;;;6.90;99.90;;;;;;5072227;28;20264;-73
2022/01/30 03:01:50;;;;;;;14.73;2.97;;;6.80;99.90;;;;;;5072483;28;20716;-73
2022/01/30 03:04:16;;;;;;;18.03;4.50;;;6.80;99.90;;;;;;5072619;28;20217;-73
2022/01/30 03:06:43;;;;;;;16.17;3.97;;;6.80;99.90;;;;;;5072649;28;20186;-73
2022/01/30 03:09:09;;;;;;;14.93;3.60;;;6.80;99.90;;;;;;5070929;28;20687;-73
2022/01/30 03:11:36;;;;;;;17.40;4.10;;;6.80;99.90;;;;;;5071942;28;20203;-73
2022/01/30 03:14:03;;;;;;;23.50;4.77;;;6.80;99.90;;;;;;5072300;28;20238;-73
2022/01/30 03:16:28;;;;;;;11.33;3.73;;;6.80;99.90;;;;;;5071749;28;20213;-73
2022/01/30 03:18:54;;;;;;;18.03;4.20;;;6.80;99.90;;;;;;5065232;28;20171;-73
2022/01/30 03:21:19;;;;;;;19.23;3.93;;;6.70;99.90;;;;;;5071875;28;20210;-73
2022/01/30 03:23:46;;;;;;;18.97;3.83;;;6.60;99.90;;;;;;5071962;28;20243;-73
2022/01/30 03:26:13;;;;;;;22.70;4.23;;;6.60;99.90;;;;;;5071980;28;20218;-73
2022/01/30 03:28:41;;;;;;;15.63;3.33;;;6.50;99.90;;;;;;5068632;28;20767;-73
2022/01/30 03:31:09;;;;;;;16.10;3.73;;;6.50;99.90;;;;;;5068482;28;20178;-73
2022/01/30 03:33:35;;;;;;;21.73;4.43;;;6.50;99.90;;;;;;5082072;28;20194;-73
2022/01/30 03:36:00;;;;;;;17.13;4.43;;;6.50;99.90;;;;;;5080047;28;20555;-73
2022/01/30 03:38:26;;;;;;;17.60;3.97;;;6.50;99.90;;;;;;5080332;28;20207;-73
2022/01/30 03:40:52;;;;;;;17.90;3.67;;;6.50;99.90;;;;;;5083500;28;20226;-73
2022/01/30 03:43:18;;;;;;;17.90;4.40;;;6.60;99.90;;;;;;5082156;28;20218;-73
2022/01/30 03:45:45;;;;;;;22.80;4.53;;;6.60;99.90;;;;;;5083481;28;20186;-73
2022/01/30 03:48:12;;;;;;;16.40;3.70;;;6.60;99.90;;;;;;5083116;28;20216;-73
2022/01/30 03:50:38;;;;;;;15.47;3.67;;;6.60;99.90;;;;;;5080668;28;20210;-73
2022/01/30 03:53:04;;;;;;;20.20;4.47;;;6.50;99.90;;;;;;5079821;28;20215;-73
2022/01/30 03:55:29;;;;;;;20.20;4.07;;;6.60;99.90;;;;;;5079279;28;20803;-73
2022/01/30 03:57:54;;;;;;;17.63;4.43;;;6.60;99.90;;;;;;5083429;28;20175;-73
2022/01/30 04:00:20;;;;;;;16.00;3.73;;;6.50;99.90;;;;;;5069819;28;20632;-73
2022/01/30 04:02:46;;;;;;;22.97;5.07;;;6.40;99.90;;;;;;5070456;28;20207;-73
2022/01/30 04:05:12;;;;;;;18.43;3.97;;;6.10;99.90;;;;;;5078048;28;20206;-73
2022/01/30 04:07:37;;;;;;;18.00;4.13;;;6.00;99.90;;;;;;5081518;28;20618;-73
2022/01/30 04:10:05;;;;;;;22.23;3.83;;;5.90;99.90;;;;;;5082799;28;20181;-73
2022/01/30 04:12:31;;;;;;;20.77;4.10;;;5.70;99.90;;;;;;5081404;28;20221;-73
2022/01/30 04:14:57;;;;;;;16.33;4.10;;;5.70;99.90;;;;;;5078288;28;20722;-73
2022/01/30 04:17:23;;;;;;;18.40;3.40;;;5.70;99.90;;;;;;5078134;28;20408;-73
2022/01/30 04:19:49;;;;;;;16.60;4.47;;;5.60;99.90;;;;;;5082389;28;20210;-73
2022/01/30 04:22:14;;;;;;;22.90;4.40;;;5.60;99.90;;;;;;5082840;28;20194;-73
2022/01/30 04:24:40;;;;;;;13.77;2.87;;;5.60;99.90;;;;;;5080370;28;20534;-73
2022/01/30 04:27:06;;;;;;;17.27;3.60;;;5.60;99.90;;;;;;5079299;28;20214;-73
2022/01/30 04:29:32;;;;;;;14.60;3.77;;;5.70;99.90;;;;;;5079765;28;20206;-73
2022/01/30 04:31:58;;;;;;;17.83;3.63;;;5.70;99.90;;;;;;5076474;28;20294;-73
2022/01/30 04:34:25;;;;;;;19.60;4.10;;;5.70;99.90;;;;;;5079569;28;20206;-73
2022/01/30 04:37:19;;;;;;;15.37;3.57;;;5.80;99.90;;;;;;5083164;28;20171;-73
2022/01/30 04:52:01;;;;;;;15.83;3.30;;;5.90;99.90;;;;;;5079549;28;20209;-73
2022/01/30 04:54:24;;;;;;;14.27;3.23;;;5.90;99.90;;;;;;5081311;28;20629;-73
2022/01/30 04:59:43;;;;;;;12.33;2.83;;;6.00;99.90;;;;;;5082475;28;20689;-73
2022/01/30 05:02:11;;;;;;;13.83;3.20;;;6.00;99.90;;;;;;5079066;28;20238;-73
2022/01/30 05:04:50;;;;;;;9.33;2.60;;;5.90;99.90;;;;;;5079715;28;20210;-73
2022/01/30 05:07:27;;;;;;;9.40;2.80;;;5.90;99.90;;;;;;5080785;28;20194;-73
2022/01/30 05:09:53;;;;;;;15.93;3.27;;;5.90;99.90;;;;;;5071887;28;20175;-73
2022/01/30 05:12:19;;;;;;;10.83;3.00;;;5.90;99.90;;;;;;5077348;28;20214;-73
2022/01/30 05:14:45;;;;;;;14.20;2.67;;;5.90;99.90;;;;;;5082412;28;20234;-73
2022/01/30 05:17:10;;;;;;;14.57;3.30;;;5.90;99.90;;;;;;5084878;28;20285;-73
2022/01/30 05:19:36;;;;;;;13.20;3.50;;;5.90;99.90;;;;;;5083489;28;20210;-73
2022/01/30 05:22:02;;;;;;;17.10;3.67;;;5.90;99.90;;;;;;5082369;28;20167;-73
2022/01/30 05:24:28;;;;;;;15.20;3.17;;;5.90;99.90;;;;;;5082716;28;20179;-73
2022/01/30 05:26:54;;;;;;;17.97;3.60;;;6.00;99.90;;;;;;5085882;28;20225;-73
2022/01/30 05:29:19;;;;;;;13.97;3.10;;;5.90;99.90;;;;;;5069580;28;20294;-73
2022/01/30 05:31:45;;;;;;;13.37;3.60;;;6.00;99.90;;;;;;5084140;28;20195;-73
2022/01/30 05:34:11;;;;;;;13.80;4.30;;;6.00;99.90;;;;;;5086178;28;20670;-73
2022/01/30 05:36:38;;;;;;;17.80;3.77;;;6.10;99.90;;;;;;5082188;28;20299;-73
2022/01/30 05:39:05;;;;;;;20.03;3.90;;;6.10;99.90;;;;;;5081110;28;20297;-73
2022/01/30 05:41:32;;;;;;;16.87;3.13;;;6.10;99.90;;;;;;5081984;28;20568;-73
2022/01/30 05:44:00;;;;;;;16.00;3.47;;;6.10;99.90;;;;;;5085918;28;20210;-73
2022/01/30 05:46:33;;;;;;;17.37;4.20;;;6.10;99.90;;;;;;5084676;28;20209;-73
2022/01/30 05:49:01;;;;;;;19.23;4.00;;;6.10;99.90;;;;;;5071302;28;20692;-73
2022/01/30 05:51:27;;;;;;;15.83;3.30;;;6.10;99.90;;;;;;5073901;28;20651;-73
2022/01/30 05:53:52;;;;;;;17.23;3.43;;;6.10;99.90;;;;;;5073909;28;20207;-73
2022/01/30 05:56:18;;;;;;;15.60;3.93;;;6.00;99.90;;;;;;5073791;28;20217;-73
2022/01/30 05:58:43;;;;;;;16.60;3.50;;;6.00;99.90;;;;;;5073403;28;20210;-73
2022/01/30 06:01:09;;;;;;;18.47;3.90;;;6.00;99.90;;;;;;5072187;28;20179;-73
2022/01/30 06:03:34;;;;;;;18.67;4.00;;;6.00;99.90;;;;;;5072672;28;20217;-73
2022/01/30 06:06:02;;;;;;;20.00;4.27;;;6.00;99.90;;;;;;5074240;28;20203;-73
2022/01/30 06:09:19;;;;;;;20.23;5.10;;;6.00;99.90;;;;;;5074435;28;20222;-73
2022/01/30 06:11:14;;;;;;;20.20;4.47;;;6.10;99.90;;;;;;5063744;28;20214;-73
2022/01/30 06:13:40;;;;;;;14.57;4.07;;;6.00;99.90;;;;;;5095465;22;20225;-73
2022/01/30 06:16:06;;;;;;;17.60;4.17;;;6.10;99.90;;;;;;5090626;28;20230;-75
2022/01/30 06:18:32;;;;;;;19.97;4.40;;;6.10;99.90;;;;;;5088845;28;20170;-76
2022/01/30 06:20:57;;;;;;;25.17;4.73;;;6.20;99.90;;;;;;5109740;28;20692;-76
2022/01/30 06:23:26;;;;;;;21.53;4.20;;;6.20;99.90;;;;;;5085417;28;20217;-75
2022/01/30 06:25:53;;;;;;;19.70;5.17;;;6.10;99.90;;;;;;5087790;28;20209;-76
2022/01/30 06:28:18;;;;;;;20.90;4.17;;;6.20;99.90;;;;;;5095109;28;20594;-76
2022/01/30 06:30:44;;;;;;;20.77;4.53;;;6.20;99.90;;;;;;5095408;28;20182;-76
2022/01/30 06:33:09;;;;;;;22.13;4.17;;;6.20;99.90;;;;;;5095714;28;20305;-75
2022/01/30 06:35:35;;;;;;;18.33;4.93;;;6.20;99.90;;;;;;5115721;28;20213;-75
2022/01/30 06:38:04;;;;;;;16.67;4.00;;;6.20;99.90;;;;;;5097161;28;20262;-75
2022/01/30 06:40:30;;;;;;;23.83;4.80;;;6.20;99.90;;;;;;5115817;28;20216;-75
2022/01/30 06:42:56;;;;;;;19.40;4.27;;;6.20;99.90;;;;;;5093055;28;20666;-76
2022/01/30 06:45:21;;;;;;;18.47;3.83;;;6.20;99.90;;;;;;5111681;28;20217;-76
2022/01/30 06:47:47;;;;;;;20.70;4.57;;;6.20;99.90;;;;;;5088504;28;20213;-76
2022/01/30 06:50:13;;;;;;;13.63;3.87;;;6.20;99.90;;;;;;5111812;28;20229;-76
2022/01/30 06:52:39;;;;;;;16.53;4.10;;;6.30;99.90;;;;;;5098288;28;20280;-76
2022/01/30 06:55:06;;;;;;;19.20;3.77;;;6.20;99.90;;;;;;5116688;28;20255;-75
2022/01/30 06:57:32;;;;;;;19.60;4.73;;;6.30;99.90;;;;;;5116444;28;20181;-76
2022/01/30 06:59:58;;;;;;;17.13;3.80;;;6.30;99.90;;;;;;5114445;28;20205;-75
2022/01/30 07:02:23;;;;;;;19.43;4.10;;;6.30;99.90;;;;;;5113693;28;20208;-75
2022/01/30 07:04:49;;;;;;;14.67;3.93;;;6.40;99.90;;;;;;5095630;28;20209;-76
2022/01/30 07:07:15;;;;;;;21.37;3.87;;;6.50;99.90;;;;;;5095099;28;20674;-76
2022/01/30 07:09:40;;;;;;;14.93;3.70;;;6.50;99.90;;;;;;5092214;28;20182;-77
2022/01/30 07:12:08;;;;;;;20.47;4.83;;;6.60;99.90;;;;;;5089343;28;20312;-76
2022/01/30 07:14:34;;;;;;;13.80;3.07;;;6.60;99.90;;;;;;5112259;28;20713;-76
2022/01/30 07:17:00;;;;;;;19.43;4.17;;;6.60;99.90;;;;;;5092184;28;20266;-76
2022/01/30 07:19:25;;;;;;;24.10;4.60;;;6.60;99.90;;;;;;5074713;28;20573;-77
2022/01/30 07:21:51;;;;;;;24.00;4.93;;;6.60;99.90;;;;;;5112857;28;20235;-76
2022/01/30 07:24:17;;;;;;;17.97;4.43;;;6.60;99.90;;;;;;5113155;28;20209;-74
2022/01/30 07:26:42;;;;;;;16.77;4.17;;;6.60;99.90;;;;;;5093898;28;20750;-74
2022/01/30 07:29:08;;;;;;;16.80;3.83;;;6.60;99.90;;;;;;5093917;28;20194;-74
2022/01/30 07:31:34;;;;;;;15.47;4.23;;;6.60;99.90;;;;;;5111990;28;20686;-74
2022/01/30 07:34:00;;;;;;;21.47;3.97;;;6.60;99.90;;;;;;5112615;28;20190;-74
2022/01/30 07:36:28;;;;;;;20.63;4.47;;;6.60;99.90;;;;;;5112755;28;20556;-74
2022/01/30 07:38:54;;;;;;;20.67;4.80;;;6.70;99.90;;;;;;5111535;28;20230;-75
2022/01/30 07:41:20;;;;;;;22.70;4.67;;;6.70;99.90;;;;;;5112032;28;20288;-75
2022/01/30 07:43:45;;;;;;;16.83;4.57;;;6.70;99.90;;;;;;5111857;28;20205;-75
2022/01/30 07:46:11;;;;;;;18.17;3.83;;;6.70;99.90;;;;;;5112044;28;20173;-72
2022/01/30 07:48:36;;;;;;;13.07;4.13;;;6.70;99.90;;;;;;5106883;28;20209;-75
2022/01/30 07:51:02;;;;;;;19.43;4.00;;;6.70;99.90;;;;;;5111999;28;20289;-75
2022/01/30 07:53:28;;;;;;;14.03;3.60;;;6.70;99.90;;;;;;5112027;28;20220;-75
2022/01/30 07:55:54;;;;;;;20.80;4.47;;;6.70;99.90;;;;;;5111658;28;20206;-75
2022/01/30 07:58:20;;;;;;;18.13;4.90;;;6.70;99.90;;;;;;5095037;28;20644;-75
2022/01/30 08:00:45;;;;;;;15.70;3.60;;;6.70;99.90;;;;;;5111964;28;20537;-75
2022/01/30 08:03:11;;;;;;;18.77;4.30;;;6.70;99.90;;;;;;5111854;28;20735;-74
2022/01/30 08:05:37;;;;;;;20.67;4.13;;;6.70;99.90;;;;;;5084808;28;20559;-75
2022/01/30 08:08:04;;;;;;;16.37;4.27;;;6.80;99.90;;;;;;5093311;28;20572;-74
2022/01/30 08:10:30;;;;;;;17.37;4.27;;;6.70;99.90;;;;;;5103622;28;20210;-75
2022/01/30 08:12:55;;;;;;;20.73;5.10;;;6.80;99.90;;;;;;5111852;28;20205;-76
2022/01/30 08:15:20;;;;;;;18.47;4.20;;;6.80;99.90;;;;;;5111635;28;20215;-75
2022/01/30 08:17:47;;;;;;;15.87;4.17;;;6.70;99.90;;;;;;5088003;28;20201;-73
2022/01/30 08:20:13;;;;;;;21.67;5.20;;;6.80;99.90;;;;;;5111661;28;20210;-74
2022/01/30 08:22:49;;;;;;;20.00;4.80;;;6.80;99.90;;;;;;5102869;28;20209;-74
2022/01/30 08:25:16;;;;;;;21.67;5.13;;;6.80;99.90;;;;;;5104406;28;20187;-74
2022/01/30 08:27:41;;;;;;;21.80;5.37;;;6.80;99.90;;;;;;5082763;28;20203;-74
2022/01/30 08:30:07;;;;;;;22.57;4.67;;;6.80;99.90;;;;;;5088422;28;20197;-74
2022/01/30 08:32:37;;;;;;;19.53;4.47;;;6.80;99.90;;;;;;5120432;28;20570;-74
2022/01/30 08:35:04;;;;;;;23.30;4.83;;;6.80;99.90;;;;;;5121885;28;20598;-74
2022/01/30 08:37:29;;;;;;;13.63;4.17;;;6.80;99.90;;;;;;5114127;28;20219;-74
2022/01/30 08:39:55;;;;;;;20.17;4.50;;;6.90;99.90;;;;;;5112860;28;20169;-74
2022/01/30 08:42:20;;;;;;;18.43;4.63;;;6.90;99.90;;;;;;5094548;28;20202;-75
2022/01/30 08:44:46;;;;;;;19.33;4.37;;;6.90;99.90;;;;;;5094572;28;20689;-74
2022/01/30 08:47:11;;;;;;;22.10;4.43;;;7.00;99.90;;;;;;5100596;28;20206;-74
2022/01/30 08:49:37;;;;;;;27.03;5.50;;;6.90;99.90;;;;;;5111641;28;20577;-74
2022/01/30 08:52:02;;;;;;;17.93;4.30;;;7.00;99.90;;;;;;5116207;28;20230;-74
2022/01/30 08:54:28;;;;;;;22.53;4.47;;;7.00;99.90;;;;;;5099438;28;20570;-75
2022/01/30 08:56:53;;;;;;;24.87;4.60;;;6.90;99.90;;;;;;5098105;28;20208;-74
2022/01/30 08:59:19;;;;;;;18.27;4.30;;;7.00;99.90;;;;;;5098341;28;20301;-74
2022/01/30 09:01:45;;;;;;;32.93;12.10;;;7.00;99.90;;;;;;5115270;28;20261;-74
2022/01/30 09:04:11;;;;;;;19.40;4.67;;;7.00;99.90;;;;;;5115393;28;20216;-74
2022/01/30 09:06:38;;;;;;;17.93;5.00;;;7.10;99.90;;;;;;5115403;28;20314;-75
2022/01/30 09:09:04;;;;;;;14.00;4.30;;;7.10;99.90;;;;;;5096624;28;20236;-74
2022/01/30 09:11:30;;;;;;;22.63;5.43;;;7.10;99.90;;;;;;5114918;28;20217;-74
2022/01/30 09:13:55;;;;;;;18.10;4.27;;;7.10;99.90;;;;;;5114873;28;20225;-74
2022/01/30 09:16:21;;;;;;;23.10;4.83;;;7.20;99.90;;;;;;5115206;28;20209;-75
2022/01/30 09:18:46;;;;;;;23.83;4.67;;;7.30;99.90;;;;;;5110277;28;20165;-73
2022/01/30 09:21:12;;;;;;;19.77;4.77;;;7.30;99.90;;;;;;5114964;28;20210;-75
2022/01/30 09:23:38;;;;;;;21.73;4.63;;;7.40;99.90;;;;;;5096520;28;20202;-75
2022/01/30 09:26:03;;;;;;;18.10;4.47;;;7.40;99.90;;;;;;5114681;28;20220;-74
2022/01/30 09:28:29;;;;;;;25.07;5.27;;;7.50;99.90;;;;;;5114314;28;20217;-73
2022/01/30 09:30:54;;;;;;;18.20;4.67;;;7.50;99.90;;;;;;5115005;28;20528;-74
2022/01/30 09:33:20;;;;;;;19.97;4.47;;;7.60;99.90;;;;;;5096899;28;20209;-73
2022/01/30 09:35:45;;;;;;;20.83;4.23;;;7.60;99.90;;;;;;5096958;28;20293;-74
2022/01/30 09:38:10;;;;;;;21.13;4.47;;;7.60;99.90;;;;;;5114444;28;20686;-75
2022/01/30 09:40:36;;;;;;;20.07;4.70;;;7.70;99.90;;;;;;5114306;28;20221;-74
2022/01/30 09:43:02;;;;;;;18.00;4.90;;;7.70;99.90;;;;;;5114406;28;20261;-73
2022/01/30 09:45:29;;;;;;;15.47;4.73;;;7.70;99.90;;;;;;5114933;28;20667;-74
2022/01/30 09:47:56;;;;;;;23.20;4.80;;;7.60;99.90;;;;;;5108882;28;20260;-74
2022/01/30 09:50:22;;;;;;;18.63;4.20;;;7.60;99.90;;;;;;5114173;28;20665;-75
2022/01/30 09:52:48;;;;;;;19.17;4.23;;;7.50;99.90;;;;;;5095964;28;20288;-74
2022/01/30 09:55:15;;;;;;;18.67;5.40;;;7.40;99.90;;;;;;5114456;28;20293;-74
2022/01/30 09:57:41;;;;;;;20.63;4.77;;;7.40;99.90;;;;;;5114874;28;20182;-75
2022/01/30 10:00:09;;;;;;;20.17;4.57;;;7.40;99.90;;;;;;5114095;28;20201;-75
2022/01/30 10:02:34;;;;;;;17.17;4.77;;;7.40;99.90;;;;;;5095140;28;20217;-75
2022/01/30 10:05:00;;;;;;;20.63;4.77;;;7.40;99.90;;;;;;5113956;28;20340;-74
2022/01/30 10:07:49;;;;;;;23.77;4.87;;;7.50;99.90;;;;;;5095373;28;20274;-75
2022/01/30 10:10:17;;;;;;;23.37;5.63;;;7.40;99.90;;;;;;5114168;28;20177;-75
2022/01/30 10:13:01;;;;;;;20.73;4.67;;;7.40;99.90;;;;;;5114285;28;20185;-75
2022/01/30 10:15:27;;;;;;;23.27;5.20;;;7.40;99.90;;;;;;5095742;28;20222;-75
2022/01/30 10:17:52;;;;;;;19.37;4.53;;;7.30;99.90;;;;;;5108252;28;20220;-74
2022/01/30 10:20:20;;;;;;;15.47;4.80;;;7.30;99.90;;;;;;5113770;28;20347;-75
2022/01/30 10:22:59;;;;;;;16.50;5.27;;;7.30;99.90;;;;;;5095392;28;20209;-74
2022/01/30 10:25:33;;;;;;;24.80;5.73;;;7.30;99.90;;;;;;5095069;28;20262;-75
2022/01/30 10:28:14;;;;;;;20.17;5.70;;;7.30;99.90;;;;;;5094886;28;20201;-75
2022/01/30 10:30:58;;;;;;;21.40;4.97;;;7.40;99.90;;;;;;5113838;28;20318;-75
2022/01/30 10:33:41;;;;;;;25.27;5.40;;;7.40;99.90;;;;;;5113547;28;20254;-75
2022/01/30 10:36:08;;;;;;;23.03;5.20;;;7.40;99.90;;;;;;5113309;28;20209;-74
2022/01/30 10:38:39;;;;;;;22.83;5.00;;;7.40;99.90;;;;;;5094743;28;20290;-74
2022/01/30 10:41:13;;;;;;;16.07;4.70;;;7.50;99.90;;;;;;5113112;28;20209;-74
2022/01/30 10:44:03;;;;;;;24.57;5.77;;;7.50;99.90;;;;;;5113115;28;20711;-74
2022/01/30 10:46:32;;;;;;;26.70;5.57;;;7.50;99.90;;;;;;5112805;28;20206;-74
2022/01/30 10:49:03;;;;;;;17.93;4.70;;;7.50;99.90;;;;;;5089827;28;20258;-74
2022/01/30 10:51:30;;;;;;;22.93;5.33;;;7.60;99.90;;;;;;5094656;28;20202;-75
2022/01/30 10:53:58;;;;;;;23.87;5.20;;;7.50;99.90;;;;;;5094823;28;20250;-75
2022/01/30 10:56:27;;;;;;;20.90;5.20;;;7.60;99.90;;;;;;5112620;28;20220;-75
2022/01/30 10:59:12;;;;;;;30.27;6.63;;;7.70;99.90;;;;;;5112766;28;20255;-75
2022/01/30 11:01:46;;;;;;;21.43;5.77;;;7.60;99.90;;;;;;5112207;28;20205;-73
2022/01/30 11:04:26;;;;;;;30.07;4.90;;;7.60;99.90;;;;;;5094643;28;20190;-73
2022/01/30 11:06:53;;;;;;;23.07;6.10;;;7.70;99.90;;;;;;5095217;28;20177;-74
2022/01/30 11:09:25;;;;;;;23.23;6.17;;;7.70;99.90;;;;;;5113434;28;20216;-74
2022/01/30 11:11:58;;;;;;;26.80;5.40;;;7.80;99.90;;;;;;5113058;28;20220;-75
2022/01/30 11:14:35;;;;;;;18.40;5.57;;;7.80;99.90;;;;;;5112218;28;20213;-74
2022/01/30 11:17:07;;;;;;;23.63;4.87;;;7.80;99.90;;;;;;5110436;28;20205;-74
2022/01/30 11:19:35;;;;;;;27.70;6.00;;;7.70;99.90;;;;;;5111006;28;20201;-75
2022/01/30 11:22:04;;;;;;;31.50;5.70;;;7.70;99.90;;;;;;5094497;28;20311;-75
2022/01/30 11:24:34;;;;;;;22.20;5.37;;;7.70;99.90;;;;;;5094991;28;20197;-75
2022/01/30 11:27:00;;;;;;;23.67;5.63;;;7.70;99.90;;;;;;5112533;28;20202;-73
2022/01/30 11:29:27;;;;;;;23.87;6.10;;;7.60;99.90;;;;;;5094613;28;20206;-75
2022/01/30 11:31:53;;;;;;;28.73;5.87;;;7.60;99.90;;;;;;5094431;28;20601;-75
2022/01/30 11:34:19;;;;;;;33.50;7.43;;;7.60;99.90;;;;;;5112897;28;20212;-74
2022/01/30 11:36:47;;;;;;;22.17;5.83;;;7.60;99.90;;;;;;5112737;28;20256;-76
2022/01/30 11:39:17;;;;;;;26.83;6.80;;;7.60;99.90;;;;;;5112677;28;20668;-75
2022/01/30 11:42:05;;;;;;;20.10;5.57;;;7.70;99.90;;;;;;5112578;28;20293;-75
2022/01/30 11:44:31;;;;;;;27.97;5.93;;;7.70;99.90;;;;;;5094416;28;20220;-77
2022/01/30 11:46:58;;;;;;;26.13;6.33;;;7.70;99.90;;;;;;5092052;28;20193;-74
2022/01/30 11:49:40;;;;;;;28.37;6.07;;;7.70;99.90;;;;;;5100376;28;20206;-76
2022/01/30 11:52:09;;;;;;;27.17;5.90;;;7.70;99.90;;;;;;5088711;28;20184;-76
2022/01/30 11:54:36;;;;;;;23.10;6.50;;;7.80;99.90;;;;;;5112906;28;20225;-74
2022/01/30 11:57:18;;;;;;;28.73;7.57;;;7.80;99.90;;;;;;5112489;28;20202;-74
2022/01/30 11:59:46;;;;;;;32.40;6.73;;;7.80;99.90;;;;;;5094313;28;20201;-75
2022/01/30 12:02:25;;;;;;;29.53;6.00;;;7.70;99.90;;;;;;5111964;28;20202;-76
2022/01/30 12:04:58;;;;;;;28.30;7.00;;;7.70;99.90;;;;;;5093842;28;20211;-75
2022/01/30 12:07:44;;;;;;;38.53;6.90;;;7.80;99.90;;;;;;5093738;28;20221;-74
2022/01/30 12:10:19;;;;;;;31.77;6.33;;;7.80;99.90;;;;;;5111818;28;20542;-74
2022/01/30 12:12:56;;;;;;;25.70;5.63;;;7.90;99.90;;;;;;5100733;28;20250;-74
2022/01/30 12:15:42;;;;;;;26.23;6.17;;;7.90;99.90;;;;;;5077894;23;20234;-76
2022/01/30 12:18:14;;;;;;;30.27;6.30;;;7.90;99.90;;;;;;5065823;28;20206;-77
2022/01/30 12:21:04;;;;;;;32.40;6.13;;;7.90;99.90;;;;;;5082449;28;20213;-77
2022/01/30 12:23:35;;;;;;;21.57;5.80;;;8.00;99.90;;;;;;5073185;28;20218;-78
2022/01/30 12:26:06;;;;;;;21.37;6.43;;;7.90;99.90;;;;;;5090977;28;20202;-77
2022/01/30 12:28:53;;;;;;;27.20;5.83;;;7.90;99.90;;;;;;5090833;28;20233;-78
2022/01/30 12:31:38;;;;;;;29.73;7.10;;;7.80;99.90;;;;;;5083074;28;20219;-77
2022/01/30 12:34:14;;;;;;;31.67;6.90;;;7.90;99.90;;;;;;5071142;28;20648;-78
2022/01/30 12:36:42;;;;;;;34.70;7.60;;;7.90;99.90;;;;;;5071087;28;20241;-78
2022/01/30 12:39:16;;;;;;;26.43;6.23;;;8.00;99.90;;;;;;5070727;28;20215;-77
2022/01/30 12:41:42;;;;;;;23.50;6.53;;;8.00;99.90;;;;;;5052662;28;20225;-78
2022/01/30 12:44:13;;;;;;;36.23;6.97;;;8.00;99.90;;;;;;5052851;28;20218;-78
2022/01/30 12:46:48;;;;;;;29.00;5.87;;;7.90;99.90;;;;;;5071003;28;20591;-78
2022/01/30 12:49:28;;;;;;;36.07;7.20;;;8.00;99.90;;;;;;5066329;28;20206;-78
2022/01/30 12:51:59;;;;;;;35.60;7.47;;;7.90;99.90;;;;;;5071294;28;20177;-78
2022/01/30 12:54:27;;;;;;;32.63;8.03;;;8.00;99.90;;;;;;5070858;28;20261;-78
2022/01/30 12:56:54;;;;;;;26.47;7.07;;;8.00;99.90;;;;;;5070538;28;20211;-78
2022/01/30 12:59:23;;;;;;;30.13;6.67;;;8.00;99.90;;;;;;5069326;28;20237;-78
2022/01/30 13:01:50;;;;;;;34.17;7.00;;;8.00;99.90;;;;;;5079040;28;20231;-77
2022/01/30 13:04:21;;;;;;;27.50;7.40;;;8.00;99.90;;;;;;5075880;28;20203;-77
2022/01/30 13:06:48;;;;;;;32.73;7.30;;;8.00;99.90;;;;;;5075557;28;20175;-77
2022/01/30 13:09:22;;;;;;;28.67;6.13;;;8.00;99.90;;;;;;5057005;28;20223;-77
2022/01/30 13:11:49;;;;;;;30.43;6.27;;;7.90;99.90;;;;;;5075420;28;20263;-77
2022/01/30 13:14:16;;;;;;;32.17;6.13;;;8.00;99.90;;;;;;5054266;28;20226;-77
2022/01/30 13:16:45;;;;;;;25.13;6.13;;;8.00;99.90;;;;;;5072218;28;20687;-77
2022/01/30 13:19:38;;;;;;;30.97;5.47;;;8.00;99.90;;;;;;5073024;28;20235;-77
2022/01/30 13:22:10;;;;;;;29.80;6.63;;;8.00;99.90;;;;;;5087673;28;20186;-77
2022/01/30 13:24:36;;;;;;;29.37;6.87;;;7.90;99.90;;;;;;5091892;28;20191;-78
2022/01/30 13:27:07;;;;;;;32.17;6.37;;;7.90;99.90;;;;;;5090800;28;20205;-78
2022/01/30 13:29:35;;;;;;;22.20;6.20;;;7.90;99.90;;;;;;5090653;28;20297;-77
2022/01/30 13:32:07;;;;;;;30.60;6.73;;;7.90;99.90;;;;;;5072579;28;20218;-77
2022/01/30 13:34:34;;;;;;;32.57;6.13;;;7.90;99.90;;;;;;5091094;28;20722;-77
2022/01/30 13:37:01;;;;;;;30.90;6.73;;;8.00;99.90;;;;;;5091409;28;20258;-78
2022/01/30 13:39:36;;;;;;;36.37;7.30;;;8.00;99.90;;;;;;5095179;28;20171;-77